sensor_id;sensor_type;location;lat;lon;timestamp;P1;durP1;ratioP1;P2;durP2;ratioP2
20140;SDS011;10231;47.702;9.826;2023-04-07T00:01:45;7.57;;;6.00;;
20140;SDS011;10231;47.702;9.826;2023-04-07T00:04:11;5.87;;;5.27;;
20140;SDS011;10231;47.702;9.826;2023-04-07T00:06:37;5.83;;;5.30;;
20140;SDS011;10231;47.702;9.826;2023-04-07T00:09:02;5.70;;;5.07;;
20140;SDS011;10231;47.702;9.826;2023-04-07T00:11:28;6.40;;;5.77;;
20140;SDS011;10231;47.702;9.826;2023-04-07T00:13:53;6.77;;;5.90;;
20140;SDS011;10231;47.702;9.826;2023-04-07T00:16:19;6.30;;;5.60;;
20140;SDS011;10231;47.702;9.826;2023-04-07T00:18:44;9.43;;;5.77;;
20140;SDS011;10231;47.702;9.826;2023-04-07T00:21:10;6.30;;;5.70;;
20140;SDS011;10231;47.702;9.826;2023-04-07T00:23:35;6.33;;;5.40;;
20140;SDS011;10231;47.702;9.826;2023-04-07T00:26:01;6.50;;;5.90;;
20140;SDS011;10231;47.702;9.826;2023-04-07T00:28:27;6.30;;;5.70;;
20140;SDS011;10231;47.702;9.826;2023-04-07T00:30:52;5.67;;;5.17;;
20140;SDS011;10231;47.702;9.826;2023-04-07T00:33:18;7.40;;;5.57;;
20140;SDS011;10231;47.702;9.826;2023-04-07T00:35:43;6.20;;;5.60;;
20140;SDS011;10231;47.702;9.826;2023-04-07T00:38:09;5.80;;;5.30;;
20140;SDS011;10231;47.702;9.826;2023-04-07T00:40:34;7.13;;;6.33;;
20140;SDS011;10231;47.702;9.826;2023-04-07T00:43:00;6.27;;;5.40;;
20140;SDS011;10231;47.702;9.826;2023-04-07T00:45:26;7.10;;;6.10;;
20140;SDS011;10231;47.702;9.826;2023-04-07T00:47:51;6.20;;;5.60;;
20140;SDS011;10231;47.702;9.826;2023-04-07T00:50:17;6.43;;;5.53;;
20140;SDS011;10231;47.702;9.826;2023-04-07T00:52:43;5.87;;;5.27;;
20140;SDS011;10231;47.702;9.826;2023-04-07T00:55:09;6.00;;;5.47;;
20140;SDS011;10231;47.702;9.826;2023-04-07T00:57:35;6.60;;;5.93;;
20140;SDS011;10231;47.702;9.826;2023-04-07T01:00:00;6.23;;;5.63;;
20140;SDS011;10231;47.702;9.826;2023-04-07T01:02:35;6.10;;;5.50;;
20140;SDS011;10231;47.702;9.826;2023-04-07T01:08:00;7.73;;;5.77;;
20140;SDS011;10231;47.702;9.826;2023-04-07T01:10:42;7.13;;;5.40;;
20140;SDS011;10231;47.702;9.826;2023-04-07T01:16:23;5.50;;;5.00;;
20140;SDS011;10231;47.702;9.826;2023-04-07T01:18:53;6.43;;;5.73;;
20140;SDS011;10231;47.702;9.826;2023-04-07T01:21:21;5.97;;;5.33;;
20140;SDS011;10231;47.702;9.826;2023-04-07T01:26:35;5.40;;;4.90;;
20140;SDS011;10231;47.702;9.826;2023-04-07T01:31:35;5.97;;;5.13;;
20140;SDS011;10231;47.702;9.826;2023-04-07T01:34:03;4.70;;;4.30;;
20140;SDS011;10231;47.702;9.826;2023-04-07T01:36:33;5.47;;;4.97;;
20140;SDS011;10231;47.702;9.826;2023-04-07T01:38:59;6.13;;;5.43;;
20140;SDS011;10231;47.702;9.826;2023-04-07T01:41:25;6.50;;;5.07;;
20140;SDS011;10231;47.702;9.826;2023-04-07T01:43:52;5.80;;;5.30;;
20140;SDS011;10231;47.702;9.826;2023-04-07T01:46:19;5.20;;;4.70;;
20140;SDS011;10231;47.702;9.826;2023-04-07T01:48:46;5.30;;;4.80;;
20140;SDS011;10231;47.702;9.826;2023-04-07T01:51:12;4.93;;;4.43;;
20140;SDS011;10231;47.702;9.826;2023-04-07T01:53:42;5.87;;;5.10;;
20140;SDS011;10231;47.702;9.826;2023-04-07T01:56:09;5.67;;;5.03;;
20140;SDS011;10231;47.702;9.826;2023-04-07T01:58:35;5.83;;;5.33;;
20140;SDS011;10231;47.702;9.826;2023-04-07T02:01:00;5.33;;;4.83;;
20140;SDS011;10231;47.702;9.826;2023-04-07T02:03:27;4.90;;;4.40;;
20140;SDS011;10231;47.702;9.826;2023-04-07T02:06:24;6.17;;;5.57;;
20140;SDS011;10231;47.702;9.826;2023-04-07T02:08:56;6.00;;;5.50;;
20140;SDS011;10231;47.702;9.826;2023-04-07T02:11:26;5.53;;;4.40;;
20140;SDS011;10231;47.702;9.826;2023-04-07T02:13:55;5.30;;;4.37;;
20140;SDS011;10231;47.702;9.826;2023-04-07T02:16:21;5.07;;;4.47;;
20140;SDS011;10231;47.702;9.826;2023-04-07T02:18:48;5.03;;;4.47;;
20140;SDS011;10231;47.702;9.826;2023-04-07T02:21:14;5.57;;;5.07;;
20140;SDS011;10231;47.702;9.826;2023-04-07T02:23:40;5.20;;;4.70;;
20140;SDS011;10231;47.702;9.826;2023-04-07T02:26:06;4.87;;;4.47;;
20140;SDS011;10231;47.702;9.826;2023-04-07T02:28:31;4.70;;;4.23;;
20140;SDS011;10231;47.702;9.826;2023-04-07T02:30:57;5.77;;;4.60;;
20140;SDS011;10231;47.702;9.826;2023-04-07T02:33:23;6.07;;;4.77;;
20140;SDS011;10231;47.702;9.826;2023-04-07T02:35:48;5.07;;;4.60;;
20140;SDS011;10231;47.702;9.826;2023-04-07T02:38:14;4.50;;;4.00;;
20140;SDS011;10231;47.702;9.826;2023-04-07T02:40:39;5.80;;;5.20;;
20140;SDS011;10231;47.702;9.826;2023-04-07T02:43:05;4.93;;;4.43;;
20140;SDS011;10231;47.702;9.826;2023-04-07T02:45:31;5.30;;;4.80;;
20140;SDS011;10231;47.702;9.826;2023-04-07T02:47:56;5.53;;;4.83;;
20140;SDS011;10231;47.702;9.826;2023-04-07T02:50:22;5.30;;;4.80;;
20140;SDS011;10231;47.702;9.826;2023-04-07T02:52:50;4.97;;;4.47;;
20140;SDS011;10231;47.702;9.826;2023-04-07T02:55:15;4.80;;;4.40;;
20140;SDS011;10231;47.702;9.826;2023-04-07T02:57:42;4.70;;;4.30;;
20140;SDS011;10231;47.702;9.826;2023-04-07T03:00:08;5.43;;;4.90;;
20140;SDS011;10231;47.702;9.826;2023-04-07T03:02:34;4.53;;;4.20;;
20140;SDS011;10231;47.702;9.826;2023-04-07T03:04:59;5.50;;;5.00;;
20140;SDS011;10231;47.702;9.826;2023-04-07T03:07:26;5.03;;;4.10;;
20140;SDS011;10231;47.702;9.826;2023-04-07T03:09:51;5.27;;;4.23;;
20140;SDS011;10231;47.702;9.826;2023-04-07T03:12:17;4.67;;;4.30;;
20140;SDS011;10231;47.702;9.826;2023-04-07T03:14:42;5.00;;;4.50;;
20140;SDS011;10231;47.702;9.826;2023-04-07T03:17:08;5.57;;;4.03;;
20140;SDS011;10231;47.702;9.826;2023-04-07T03:19:34;4.47;;;4.07;;
20140;SDS011;10231;47.702;9.826;2023-04-07T03:22:00;4.60;;;4.13;;
20140;SDS011;10231;47.702;9.826;2023-04-07T03:24:25;5.07;;;4.67;;
20140;SDS011;10231;47.702;9.826;2023-04-07T03:26:51;5.17;;;4.47;;
20140;SDS011;10231;47.702;9.826;2023-04-07T03:29:16;4.60;;;4.20;;
20140;SDS011;10231;47.702;9.826;2023-04-07T03:31:42;4.03;;;3.73;;
20140;SDS011;10231;47.702;9.826;2023-04-07T03:34:08;5.27;;;4.77;;
20140;SDS011;10231;47.702;9.826;2023-04-07T03:36:34;4.27;;;3.97;;
20140;SDS011;10231;47.702;9.826;2023-04-07T03:38:59;4.60;;;4.20;;
20140;SDS011;10231;47.702;9.826;2023-04-07T03:41:25;4.57;;;4.17;;
20140;SDS011;10231;47.702;9.826;2023-04-07T03:43:51;4.80;;;4.40;;
20140;SDS011;10231;47.702;9.826;2023-04-07T03:46:17;5.57;;;4.70;;
20140;SDS011;10231;47.702;9.826;2023-04-07T03:48:44;4.93;;;4.50;;
20140;SDS011;10231;47.702;9.826;2023-04-07T03:51:10;4.87;;;4.37;;
20140;SDS011;10231;47.702;9.826;2023-04-07T03:53:36;6.03;;;4.60;;
20140;SDS011;10231;47.702;9.826;2023-04-07T03:56:01;4.63;;;4.23;;
20140;SDS011;10231;47.702;9.826;2023-04-07T03:58:27;4.33;;;3.93;;
20140;SDS011;10231;47.702;9.826;2023-04-07T04:00:53;4.37;;;3.87;;
20140;SDS011;10231;47.702;9.826;2023-04-07T04:03:18;5.10;;;4.63;;
20140;SDS011;10231;47.702;9.826;2023-04-07T04:05:44;5.77;;;4.77;;
20140;SDS011;10231;47.702;9.826;2023-04-07T04:08:09;5.30;;;4.80;;
20140;SDS011;10231;47.702;9.826;2023-04-07T04:10:35;5.47;;;4.97;;
20140;SDS011;10231;47.702;9.826;2023-04-07T04:13:00;5.53;;;4.97;;
20140;SDS011;10231;47.702;9.826;2023-04-07T04:15:28;5.17;;;4.67;;
20140;SDS011;10231;47.702;9.826;2023-04-07T04:17:53;5.83;;;5.30;;
20140;SDS011;10231;47.702;9.826;2023-04-07T04:20:19;6.13;;;4.83;;
20140;SDS011;10231;47.702;9.826;2023-04-07T04:22:46;5.30;;;4.80;;
20140;SDS011;10231;47.702;9.826;2023-04-07T04:25:11;5.63;;;5.03;;
20140;SDS011;10231;47.702;9.826;2023-04-07T04:27:37;5.47;;;4.97;;
20140;SDS011;10231;47.702;9.826;2023-04-07T04:30:02;4.83;;;4.43;;
20140;SDS011;10231;47.702;9.826;2023-04-07T04:32:28;5.30;;;4.80;;
20140;SDS011;10231;47.702;9.826;2023-04-07T04:34:54;4.67;;;4.27;;
20140;SDS011;10231;47.702;9.826;2023-04-07T04:37:20;5.47;;;4.30;;
20140;SDS011;10231;47.702;9.826;2023-04-07T04:39:45;5.13;;;4.67;;
20140;SDS011;10231;47.702;9.826;2023-04-07T04:42:11;4.37;;;4.00;;
20140;SDS011;10231;47.702;9.826;2023-04-07T04:44:36;5.20;;;4.70;;
20140;SDS011;10231;47.702;9.826;2023-04-07T04:47:02;4.67;;;4.27;;
20140;SDS011;10231;47.702;9.826;2023-04-07T04:49:27;5.90;;;4.57;;
20140;SDS011;10231;47.702;9.826;2023-04-07T04:51:53;4.63;;;4.20;;
20140;SDS011;10231;47.702;9.826;2023-04-07T04:54:18;5.30;;;4.80;;
20140;SDS011;10231;47.702;9.826;2023-04-07T04:56:44;6.03;;;5.03;;
20140;SDS011;10231;47.702;9.826;2023-04-07T04:59:09;5.97;;;4.93;;
20140;SDS011;10231;47.702;9.826;2023-04-07T05:01:35;5.17;;;4.67;;
20140;SDS011;10231;47.702;9.826;2023-04-07T05:04:01;5.23;;;4.73;;
20140;SDS011;10231;47.702;9.826;2023-04-07T05:06:26;5.87;;;4.67;;
20140;SDS011;10231;47.702;9.826;2023-04-07T05:08:52;5.10;;;4.70;;
20140;SDS011;10231;47.702;9.826;2023-04-07T05:11:18;6.27;;;5.13;;
20140;SDS011;10231;47.702;9.826;2023-04-07T05:13:43;5.53;;;5.03;;
20140;SDS011;10231;47.702;9.826;2023-04-07T05:16:09;4.70;;;4.30;;
20140;SDS011;10231;47.702;9.826;2023-04-07T05:18:34;5.47;;;5.07;;
20140;SDS011;10231;47.702;9.826;2023-04-07T05:21:00;5.63;;;4.73;;
20140;SDS011;10231;47.702;9.826;2023-04-07T05:23:26;5.43;;;4.73;;
20140;SDS011;10231;47.702;9.826;2023-04-07T05:25:51;5.80;;;5.20;;
20140;SDS011;10231;47.702;9.826;2023-04-07T05:28:17;5.77;;;5.27;;
20140;SDS011;10231;47.702;9.826;2023-04-07T05:30:42;5.40;;;4.90;;
20140;SDS011;10231;47.702;9.826;2023-04-07T05:33:08;5.20;;;4.70;;
20140;SDS011;10231;47.702;9.826;2023-04-07T05:35:34;5.03;;;4.63;;
20140;SDS011;10231;47.702;9.826;2023-04-07T05:37:59;8.63;;;4.93;;
20140;SDS011;10231;47.702;9.826;2023-04-07T05:40:25;5.13;;;4.73;;
20140;SDS011;10231;47.702;9.826;2023-04-07T05:42:51;5.60;;;5.00;;
20140;SDS011;10231;47.702;9.826;2023-04-07T05:45:16;5.37;;;4.67;;
20140;SDS011;10231;47.702;9.826;2023-04-07T05:47:42;5.13;;;4.73;;
20140;SDS011;10231;47.702;9.826;2023-04-07T05:50:07;5.73;;;4.97;;
20140;SDS011;10231;47.702;9.826;2023-04-07T05:52:34;7.63;;;5.03;;
20140;SDS011;10231;47.702;9.826;2023-04-07T05:55:00;6.40;;;4.83;;
20140;SDS011;10231;47.702;9.826;2023-04-07T05:57:25;5.47;;;5.00;;
20140;SDS011;10231;47.702;9.826;2023-04-07T05:59:52;5.77;;;4.77;;
20140;SDS011;10231;47.702;9.826;2023-04-07T06:02:18;5.63;;;4.50;;
20140;SDS011;10231;47.702;9.826;2023-04-07T06:04:43;8.07;;;5.97;;
20140;SDS011;10231;47.702;9.826;2023-04-07T06:07:09;7.20;;;5.13;;
20140;SDS011;10231;47.702;9.826;2023-04-07T06:09:34;6.20;;;5.60;;
20140;SDS011;10231;47.702;9.826;2023-04-07T06:12:00;6.00;;;5.50;;
20140;SDS011;10231;47.702;9.826;2023-04-07T06:14:29;8.73;;;5.67;;
20140;SDS011;10231;47.702;9.826;2023-04-07T06:16:54;5.43;;;4.93;;
20140;SDS011;10231;47.702;9.826;2023-04-07T06:19:20;5.60;;;5.10;;
20140;SDS011;10231;47.702;9.826;2023-04-07T06:21:45;5.23;;;4.80;;
20140;SDS011;10231;47.702;9.826;2023-04-07T06:24:11;6.03;;;5.53;;
20140;SDS011;10231;47.702;9.826;2023-04-07T06:26:37;5.60;;;5.10;;
20140;SDS011;10231;47.702;9.826;2023-04-07T06:29:04;5.60;;;4.90;;
20140;SDS011;10231;47.702;9.826;2023-04-07T06:31:29;5.20;;;4.70;;
20140;SDS011;10231;47.702;9.826;2023-04-07T06:33:55;5.03;;;4.63;;
20140;SDS011;10231;47.702;9.826;2023-04-07T06:36:21;5.30;;;4.60;;
20140;SDS011;10231;47.702;9.826;2023-04-07T06:38:47;5.03;;;4.63;;
20140;SDS011;10231;47.702;9.826;2023-04-07T06:41:13;6.90;;;6.30;;
20140;SDS011;10231;47.702;9.826;2023-04-07T06:43:41;6.63;;;6.00;;
20140;SDS011;10231;47.702;9.826;2023-04-07T06:46:11;6.53;;;5.83;;
20140;SDS011;10231;47.702;9.826;2023-04-07T06:48:37;6.53;;;5.73;;
20140;SDS011;10231;47.702;9.826;2023-04-07T06:51:02;8.53;;;6.53;;
20140;SDS011;10231;47.702;9.826;2023-04-07T06:53:28;7.20;;;6.50;;
20140;SDS011;10231;47.702;9.826;2023-04-07T06:56:06;7.93;;;6.90;;
20140;SDS011;10231;47.702;9.826;2023-04-07T06:58:33;6.47;;;5.87;;
20140;SDS011;10231;47.702;9.826;2023-04-07T07:01:00;7.40;;;6.30;;
20140;SDS011;10231;47.702;9.826;2023-04-07T07:03:26;6.90;;;6.17;;
20140;SDS011;10231;47.702;9.826;2023-04-07T07:05:53;6.73;;;5.73;;
20140;SDS011;10231;47.702;9.826;2023-04-07T07:08:20;6.07;;;5.53;;
20140;SDS011;10231;47.702;9.826;2023-04-07T07:10:46;6.47;;;5.87;;
20140;SDS011;10231;47.702;9.826;2023-04-07T07:13:12;6.73;;;5.73;;
20140;SDS011;10231;47.702;9.826;2023-04-07T07:15:37;5.93;;;5.43;;
20140;SDS011;10231;47.702;9.826;2023-04-07T07:18:03;6.07;;;5.47;;
20140;SDS011;10231;47.702;9.826;2023-04-07T07:20:28;5.37;;;4.87;;
20140;SDS011;10231;47.702;9.826;2023-04-07T07:22:54;4.50;;;4.17;;
20140;SDS011;10231;47.702;9.826;2023-04-07T07:25:20;5.93;;;5.30;;
20140;SDS011;10231;47.702;9.826;2023-04-07T07:27:46;7.47;;;5.00;;
20140;SDS011;10231;47.702;9.826;2023-04-07T07:30:11;7.53;;;4.70;;
20140;SDS011;10231;47.702;9.826;2023-04-07T07:32:37;5.60;;;5.10;;
20140;SDS011;10231;47.702;9.826;2023-04-07T07:35:03;5.40;;;4.93;;
20140;SDS011;10231;47.702;9.826;2023-04-07T07:37:28;5.20;;;4.70;;
20140;SDS011;10231;47.702;9.826;2023-04-07T07:39:54;5.20;;;4.60;;
20140;SDS011;10231;47.702;9.826;2023-04-07T07:42:20;4.57;;;4.17;;
20140;SDS011;10231;47.702;9.826;2023-04-07T07:44:45;5.43;;;5.03;;
20140;SDS011;10231;47.702;9.826;2023-04-07T07:47:11;5.47;;;4.97;;
20140;SDS011;10231;47.702;9.826;2023-04-07T07:49:37;5.30;;;4.80;;
20140;SDS011;10231;47.702;9.826;2023-04-07T07:52:02;6.60;;;4.83;;
20140;SDS011;10231;47.702;9.826;2023-04-07T07:54:28;5.00;;;4.57;;
20140;SDS011;10231;47.702;9.826;2023-04-07T07:56:53;5.07;;;4.57;;
20140;SDS011;10231;47.702;9.826;2023-04-07T07:59:19;4.97;;;4.53;;
20140;SDS011;10231;47.702;9.826;2023-04-07T08:01:45;4.83;;;4.43;;
20140;SDS011;10231;47.702;9.826;2023-04-07T08:04:11;4.63;;;4.33;;
20140;SDS011;10231;47.702;9.826;2023-04-07T08:06:36;6.50;;;4.83;;
20140;SDS011;10231;47.702;9.826;2023-04-07T08:09:02;4.70;;;4.30;;
20140;SDS011;10231;47.702;9.826;2023-04-07T08:11:27;4.90;;;4.23;;
20140;SDS011;10231;47.702;9.826;2023-04-07T08:13:53;6.23;;;4.33;;
20140;SDS011;10231;47.702;9.826;2023-04-07T08:16:19;4.93;;;4.47;;
20140;SDS011;10231;47.702;9.826;2023-04-07T08:18:46;4.70;;;4.33;;
20140;SDS011;10231;47.702;9.826;2023-04-07T08:21:11;5.30;;;4.30;;
20140;SDS011;10231;47.702;9.826;2023-04-07T08:23:37;4.80;;;4.40;;
20140;SDS011;10231;47.702;9.826;2023-04-07T08:26:02;4.83;;;4.43;;
20140;SDS011;10231;47.702;9.826;2023-04-07T08:28:28;4.37;;;3.97;;
20140;SDS011;10231;47.702;9.826;2023-04-07T08:30:53;4.40;;;4.00;;
20140;SDS011;10231;47.702;9.826;2023-04-07T08:33:19;4.10;;;3.80;;
20140;SDS011;10231;47.702;9.826;2023-04-07T08:35:45;4.23;;;3.83;;
20140;SDS011;10231;47.702;9.826;2023-04-07T08:38:11;4.77;;;3.87;;
20140;SDS011;10231;47.702;9.826;2023-04-07T08:40:36;5.60;;;4.00;;
20140;SDS011;10231;47.702;9.826;2023-04-07T08:43:03;4.27;;;3.83;;
20140;SDS011;10231;47.702;9.826;2023-04-07T08:45:33;5.00;;;3.80;;
20140;SDS011;10231;47.702;9.826;2023-04-07T08:48:07;3.93;;;3.57;;
20140;SDS011;10231;47.702;9.826;2023-04-07T08:50:42;5.20;;;4.10;;
20140;SDS011;10231;47.702;9.826;2023-04-07T08:53:10;3.90;;;3.47;;
20140;SDS011;10231;47.702;9.826;2023-04-07T08:55:39;4.27;;;3.87;;
20140;SDS011;10231;47.702;9.826;2023-04-07T08:58:05;4.20;;;3.80;;
20140;SDS011;10231;47.702;9.826;2023-04-07T09:00:36;3.77;;;3.43;;
20140;SDS011;10231;47.702;9.826;2023-04-07T09:03:05;3.60;;;3.30;;
20140;SDS011;10231;47.702;9.826;2023-04-07T09:05:32;3.40;;;3.10;;
20140;SDS011;10231;47.702;9.826;2023-04-07T09:07:59;3.60;;;3.40;;
20140;SDS011;10231;47.702;9.826;2023-04-07T09:10:25;3.03;;;2.83;;
20140;SDS011;10231;47.702;9.826;2023-04-07T09:12:50;3.43;;;3.17;;
20140;SDS011;10231;47.702;9.826;2023-04-07T09:15:16;3.90;;;3.60;;
20140;SDS011;10231;47.702;9.826;2023-04-07T09:17:42;3.37;;;3.17;;
20140;SDS011;10231;47.702;9.826;2023-04-07T09:20:08;9.80;;;4.50;;
20140;SDS011;10231;47.702;9.826;2023-04-07T09:22:40;4.27;;;3.70;;
20140;SDS011;10231;47.702;9.826;2023-04-07T09:27:52;3.47;;;3.27;;
20140;SDS011;10231;47.702;9.826;2023-04-07T09:30:22;3.20;;;2.90;;
20140;SDS011;10231;47.702;9.826;2023-04-07T09:32:48;3.20;;;2.90;;
20140;SDS011;10231;47.702;9.826;2023-04-07T09:35:14;3.50;;;3.20;;
20140;SDS011;10231;47.702;9.826;2023-04-07T09:37:40;3.67;;;3.03;;
20140;SDS011;10231;47.702;9.826;2023-04-07T09:40:06;3.10;;;2.90;;
20140;SDS011;10231;47.702;9.826;2023-04-07T09:42:33;3.27;;;2.97;;
20140;SDS011;10231;47.702;9.826;2023-04-07T09:45:01;2.97;;;2.77;;
20140;SDS011;10231;47.702;9.826;2023-04-07T09:47:27;15.07;;;4.30;;
20140;SDS011;10231;47.702;9.826;2023-04-07T09:49:55;5.47;;;3.23;;
20140;SDS011;10231;47.702;9.826;2023-04-07T09:52:47;4.10;;;3.23;;
20140;SDS011;10231;47.702;9.826;2023-04-07T09:55:20;3.53;;;3.20;;
20140;SDS011;10231;47.702;9.826;2023-04-07T09:57:50;3.37;;;3.07;;
20140;SDS011;10231;47.702;9.826;2023-04-07T10:00:16;3.90;;;3.30;;
20140;SDS011;10231;47.702;9.826;2023-04-07T10:02:42;3.80;;;3.50;;
20140;SDS011;10231;47.702;9.826;2023-04-07T10:05:09;3.53;;;3.20;;
20140;SDS011;10231;47.702;9.826;2023-04-07T10:07:35;3.40;;;3.10;;
20140;SDS011;10231;47.702;9.826;2023-04-07T10:10:04;3.07;;;2.80;;
20140;SDS011;10231;47.702;9.826;2023-04-07T10:12:32;3.63;;;3.33;;
20140;SDS011;10231;47.702;9.826;2023-04-07T10:14:59;3.53;;;3.00;;
20140;SDS011;10231;47.702;9.826;2023-04-07T10:17:26;3.47;;;3.17;;
20140;SDS011;10231;47.702;9.826;2023-04-07T10:19:53;3.47;;;2.70;;
20140;SDS011;10231;47.702;9.826;2023-04-07T10:22:21;3.37;;;3.03;;
20140;SDS011;10231;47.702;9.826;2023-04-07T10:27:32;17.30;;;4.33;;
20140;SDS011;10231;47.702;9.826;2023-04-07T10:30:16;3.50;;;2.73;;
20140;SDS011;10231;47.702;9.826;2023-04-07T10:32:49;2.87;;;2.63;;
20140;SDS011;10231;47.702;9.826;2023-04-07T10:35:16;3.10;;;2.70;;
20140;SDS011;10231;47.702;9.826;2023-04-07T10:40:46;5.90;;;2.70;;
20140;SDS011;10231;47.702;9.826;2023-04-07T10:43:12;2.70;;;2.50;;
20140;SDS011;10231;47.702;9.826;2023-04-07T10:46:01;3.27;;;2.97;;
20140;SDS011;10231;47.702;9.826;2023-04-07T10:48:26;3.00;;;2.60;;
20140;SDS011;10231;47.702;9.826;2023-04-07T10:53:29;3.00;;;2.80;;
20140;SDS011;10231;47.702;9.826;2023-04-07T10:55:58;3.27;;;3.07;;
20140;SDS011;10231;47.702;9.826;2023-04-07T10:58:27;3.90;;;3.00;;
20140;SDS011;10231;47.702;9.826;2023-04-07T11:03:32;3.10;;;2.90;;
20140;SDS011;10231;47.702;9.826;2023-04-07T11:06:17;3.60;;;3.40;;
20140;SDS011;10231;47.702;9.826;2023-04-07T11:08:43;4.87;;;3.50;;
20140;SDS011;10231;47.702;9.826;2023-04-07T11:11:12;3.87;;;3.40;;
20140;SDS011;10231;47.702;9.826;2023-04-07T11:16:05;4.00;;;3.70;;
20140;SDS011;10231;47.702;9.826;2023-04-07T11:18:31;3.73;;;3.30;;
20140;SDS011;10231;47.702;9.826;2023-04-07T11:20:57;3.53;;;3.23;;
20140;SDS011;10231;47.702;9.826;2023-04-07T11:23:23;3.70;;;3.33;;
20140;SDS011;10231;47.702;9.826;2023-04-07T11:25:51;3.00;;;2.80;;
20140;SDS011;10231;47.702;9.826;2023-04-07T11:28:18;5.00;;;3.77;;
20140;SDS011;10231;47.702;9.826;2023-04-07T11:30:44;3.33;;;3.07;;
20140;SDS011;10231;47.702;9.826;2023-04-07T11:33:17;3.50;;;3.30;;
20140;SDS011;10231;47.702;9.826;2023-04-07T11:38:17;3.03;;;2.80;;
20140;SDS011;10231;47.702;9.826;2023-04-07T11:40:43;3.30;;;3.00;;
20140;SDS011;10231;47.702;9.826;2023-04-07T11:43:16;3.40;;;3.10;;
20140;SDS011;10231;47.702;9.826;2023-04-07T11:45:42;3.47;;;3.17;;
20140;SDS011;10231;47.702;9.826;2023-04-07T11:48:26;3.90;;;2.70;;
20140;SDS011;10231;47.702;9.826;2023-04-07T11:50:55;4.20;;;2.77;;
20140;SDS011;10231;47.702;9.826;2023-04-07T11:53:28;2.80;;;2.50;;
20140;SDS011;10231;47.702;9.826;2023-04-07T11:56:04;2.90;;;2.50;;
20140;SDS011;10231;47.702;9.826;2023-04-07T11:58:34;2.77;;;2.57;;
20140;SDS011;10231;47.702;9.826;2023-04-07T12:01:01;3.17;;;2.97;;
20140;SDS011;10231;47.702;9.826;2023-04-07T12:03:31;2.60;;;2.40;;
20140;SDS011;10231;47.702;9.826;2023-04-07T12:05:58;3.00;;;2.20;;
20140;SDS011;10231;47.702;9.826;2023-04-07T12:08:38;2.30;;;2.10;;
20140;SDS011;10231;47.702;9.826;2023-04-07T12:11:08;2.50;;;2.30;;
20140;SDS011;10231;47.702;9.826;2023-04-07T12:13:35;3.03;;;2.70;;
20140;SDS011;10231;47.702;9.826;2023-04-07T12:16:01;3.60;;;2.80;;
20140;SDS011;10231;47.702;9.826;2023-04-07T12:18:27;3.63;;;3.20;;
20140;SDS011;10231;47.702;9.826;2023-04-07T12:20:53;3.27;;;2.97;;
20140;SDS011;10231;47.702;9.826;2023-04-07T12:23:20;3.73;;;3.43;;
20140;SDS011;10231;47.702;9.826;2023-04-07T12:25:47;5.03;;;3.50;;
20140;SDS011;10231;47.702;9.826;2023-04-07T12:28:12;5.10;;;3.60;;
20140;SDS011;10231;47.702;9.826;2023-04-07T12:30:38;3.80;;;3.50;;
20140;SDS011;10231;47.702;9.826;2023-04-07T12:33:04;3.73;;;3.30;;
20140;SDS011;10231;47.702;9.826;2023-04-07T12:35:30;3.17;;;2.90;;
20140;SDS011;10231;47.702;9.826;2023-04-07T12:37:56;7.67;;;3.10;;
20140;SDS011;10231;47.702;9.826;2023-04-07T12:40:22;3.23;;;2.20;;
20140;SDS011;10231;47.702;9.826;2023-04-07T12:42:47;2.40;;;2.20;;
20140;SDS011;10231;47.702;9.826;2023-04-07T12:45:13;2.17;;;2.00;;
20140;SDS011;10231;47.702;9.826;2023-04-07T12:47:39;3.87;;;3.47;;
20140;SDS011;10231;47.702;9.826;2023-04-07T12:50:04;3.77;;;3.07;;
20140;SDS011;10231;47.702;9.826;2023-04-07T12:52:30;3.87;;;3.50;;
20140;SDS011;10231;47.702;9.826;2023-04-07T12:54:56;4.40;;;2.80;;
20140;SDS011;10231;47.702;9.826;2023-04-07T12:57:22;3.03;;;2.27;;
20140;SDS011;10231;47.702;9.826;2023-04-07T12:59:48;4.70;;;2.40;;
20140;SDS011;10231;47.702;9.826;2023-04-07T13:02:13;2.20;;;2.00;;
20140;SDS011;10231;47.702;9.826;2023-04-07T13:04:41;2.27;;;1.80;;
20140;SDS011;10231;47.702;9.826;2023-04-07T13:07:10;2.50;;;1.80;;
20140;SDS011;10231;47.702;9.826;2023-04-07T13:09:36;1.83;;;1.73;;
20140;SDS011;10231;47.702;9.826;2023-04-07T13:12:02;1.90;;;1.80;;
20140;SDS011;10231;47.702;9.826;2023-04-07T13:14:28;3.73;;;1.70;;
20140;SDS011;10231;47.702;9.826;2023-04-07T13:16:53;1.43;;;1.33;;
20140;SDS011;10231;47.702;9.826;2023-04-07T13:19:20;1.90;;;1.73;;
20140;SDS011;10231;47.702;9.826;2023-04-07T13:21:45;3.17;;;1.90;;
20140;SDS011;10231;47.702;9.826;2023-04-07T13:24:11;1.60;;;1.40;;
20140;SDS011;10231;47.702;9.826;2023-04-07T13:26:37;2.97;;;1.63;;
20140;SDS011;10231;47.702;9.826;2023-04-07T13:29:02;2.07;;;1.50;;
20140;SDS011;10231;47.702;9.826;2023-04-07T13:31:28;2.30;;;1.80;;
20140;SDS011;10231;47.702;9.826;2023-04-07T13:33:54;1.53;;;1.43;;
20140;SDS011;10231;47.702;9.826;2023-04-07T13:36:19;1.67;;;1.30;;
20140;SDS011;10231;47.702;9.826;2023-04-07T13:38:45;1.43;;;1.33;;
20140;SDS011;10231;47.702;9.826;2023-04-07T13:41:11;2.23;;;1.67;;
20140;SDS011;10231;47.702;9.826;2023-04-07T13:43:36;1.30;;;1.20;;
20140;SDS011;10231;47.702;9.826;2023-04-07T13:46:02;1.23;;;1.13;;
20140;SDS011;10231;47.702;9.826;2023-04-07T13:48:27;1.80;;;1.17;;
20140;SDS011;10231;47.702;9.826;2023-04-07T13:50:53;0.90;;;0.90;;
20140;SDS011;10231;47.702;9.826;2023-04-07T13:53:18;0.90;;;0.90;;
20140;SDS011;10231;47.702;9.826;2023-04-07T13:55:44;3.33;;;1.03;;
20140;SDS011;10231;47.702;9.826;2023-04-07T13:58:09;1.30;;;1.10;;
20140;SDS011;10231;47.702;9.826;2023-04-07T14:00:35;2.73;;;1.67;;
20140;SDS011;10231;47.702;9.826;2023-04-07T14:03:02;2.47;;;1.63;;
20140;SDS011;10231;47.702;9.826;2023-04-07T14:05:28;2.83;;;1.73;;
20140;SDS011;10231;47.702;9.826;2023-04-07T14:07:53;3.37;;;2.00;;
20140;SDS011;10231;47.702;9.826;2023-04-07T14:10:19;2.40;;;2.20;;
20140;SDS011;10231;47.702;9.826;2023-04-07T14:12:44;2.80;;;1.87;;
20140;SDS011;10231;47.702;9.826;2023-04-07T14:15:10;2.30;;;2.10;;
20140;SDS011;10231;47.702;9.826;2023-04-07T14:17:36;3.20;;;2.80;;
20140;SDS011;10231;47.702;9.826;2023-04-07T14:20:01;3.13;;;2.83;;
20140;SDS011;10231;47.702;9.826;2023-04-07T14:22:27;5.10;;;3.07;;
20140;SDS011;10231;47.702;9.826;2023-04-07T14:24:54;4.60;;;2.77;;
20140;SDS011;10231;47.702;9.826;2023-04-07T14:27:20;3.80;;;2.90;;
20140;SDS011;10231;47.702;9.826;2023-04-07T14:29:49;3.67;;;3.00;;
20140;SDS011;10231;47.702;9.826;2023-04-07T14:32:15;3.27;;;2.97;;
20140;SDS011;10231;47.702;9.826;2023-04-07T14:34:40;2.80;;;2.60;;
20140;SDS011;10231;47.702;9.826;2023-04-07T14:37:06;3.50;;;3.17;;
20140;SDS011;10231;47.702;9.826;2023-04-07T14:39:32;3.30;;;3.03;;
20140;SDS011;10231;47.702;9.826;2023-04-07T14:41:58;3.50;;;2.67;;
20140;SDS011;10231;47.702;9.826;2023-04-07T14:44:24;3.00;;;2.80;;
20140;SDS011;10231;47.702;9.826;2023-04-07T14:46:50;2.73;;;2.43;;
20140;SDS011;10231;47.702;9.826;2023-04-07T14:49:15;3.03;;;2.53;;
20140;SDS011;10231;47.702;9.826;2023-04-07T14:51:41;3.13;;;2.60;;
20140;SDS011;10231;47.702;9.826;2023-04-07T14:54:06;2.37;;;2.27;;
20140;SDS011;10231;47.702;9.826;2023-04-07T14:56:32;3.47;;;3.00;;
20140;SDS011;10231;47.702;9.826;2023-04-07T14:58:58;3.57;;;2.70;;
20140;SDS011;10231;47.702;9.826;2023-04-07T15:01:23;2.80;;;2.60;;
20140;SDS011;10231;47.702;9.826;2023-04-07T15:03:50;3.40;;;2.90;;
20140;SDS011;10231;47.702;9.826;2023-04-07T15:06:16;3.20;;;2.90;;
20140;SDS011;10231;47.702;9.826;2023-04-07T15:08:43;2.57;;;2.37;;
20140;SDS011;10231;47.702;9.826;2023-04-07T15:11:08;2.63;;;2.33;;
20140;SDS011;10231;47.702;9.826;2023-04-07T15:13:34;2.90;;;2.27;;
20140;SDS011;10231;47.702;9.826;2023-04-07T15:16:10;2.20;;;2.00;;